Aviation Digital Data Service (ADDS)

Output produced by METARs form (0508 UTC 21 September 2017)
found at http://www.aviationweather.gov/adds/metars/
 
LDDU 210500Z 02024G37KT 350V050 CAVOK 14/05 Q1014 BECMG 02022KT
TAF AMD LDDU 210133Z 2101/2200 02020KT 9999 SCT040 TX21/2112Z TN13/2104Z 
     TEMPO 2101/2109 02020G30KT 
     BECMG 2109/2111 30012KT 
     BECMG 2115/2118 02018G30KT
       
LDOS 210500Z 28014KT 9999 BKN033 11/10 Q1013
TAF AMD LDOS 210133Z 2101/2200 29012KT 7000 SCT010 BKN035 TX14/2112Z TN10/2102Z 
     PROB40 
     TEMPO 2101/2109 4000 -RA BKN008 OVC025 
     TEMPO 2109/2118 28015G25KT
       
LDPL 210500Z 08003KT 050V110 CAVOK 09/05 Q1018
TAF LDPL 202325Z 2100/2200 36005KT 9999 FEW045 TX18/2113Z TN12/2104Z 
     TEMPO 2111/2115 27006KT
       
LDRI 210500Z VRB01KT CAVOK 11/06 Q1018
TAF LDRI 202325Z 2100/2200 03006KT 9999 SCT050 TX20/2113Z TN11/2104Z 
     TEMPO 2109/2115 28008KT
       
LDDU 210500Z 02024G37KT 350V050 CAVOK 14/05 Q1014 BECMG 02022KT
TAF AMD LDDU 210133Z 2101/2200 02020KT 9999 SCT040 TX21/2112Z TN13/2104Z 
     TEMPO 2101/2109 02020G30KT 
     BECMG 2109/2111 30012KT 
     BECMG 2115/2118 02018G30KT
       
LDOS 210500Z 28014KT 9999 BKN033 11/10 Q1013
TAF AMD LDOS 210133Z 2101/2200 29012KT 7000 SCT010 BKN035 TX14/2112Z TN10/2102Z 
     PROB40 
     TEMPO 2101/2109 4000 -RA BKN008 OVC025 
     TEMPO 2109/2118 28015G25KT
       
LDPL 210500Z 08003KT 050V110 CAVOK 09/05 Q1018
TAF LDPL 202325Z 2100/2200 36005KT 9999 FEW045 TX18/2113Z TN12/2104Z 
     TEMPO 2111/2115 27006KT
       
LDRI 210500Z VRB01KT CAVOK 11/06 Q1018
TAF LDRI 202325Z 2100/2200 03006KT 9999 SCT050 TX20/2113Z TN11/2104Z 
     TEMPO 2109/2115 28008KT
       
LDSP 210500Z 32008KT CAVOK 14/05 Q1017 NOSIG
TAF LDSP 202325Z 2100/2200 34008KT CAVOK TX20/2112Z TN13/2103Z 
     PROB40 
     TEMPO 2100/2108 34018G30KT
       
LDZA 210500Z 26008KT CAVOK 09/06 Q1017 NOSIG
TAF LDZA 202325Z 2100/2200 27007KT 9999 SCT050 TX19/2113Z TN10/2104Z
       
LDZD 210500Z 34005KT 320V020 CAVOK 09/05 Q1017 NOSIG
TAF LDZD 202325Z 2100/2200 33008KT CAVOK TX20/2113Z TN10/2105Z 
     BECMG 2118/2120 02006KT
       
LDSP 210500Z 32008KT CAVOK 14/05 Q1017 NOSIG
TAF LDSP 202325Z 2100/2200 34008KT CAVOK TX20/2112Z TN13/2103Z 
     PROB40 
     TEMPO 2100/2108 34018G30KT
       
LDZD 210500Z 34005KT 320V020 CAVOK 09/05 Q1017 NOSIG
TAF LDZD 202325Z 2100/2200 33008KT CAVOK TX20/2113Z TN10/2105Z 
     BECMG 2118/2120 02006KT
       
LDZA 210500Z 26008KT CAVOK 09/06 Q1017 NOSIG
TAF LDZA 202325Z 2100/2200 27007KT 9999 SCT050 TX19/2113Z TN10/2104Z